Portada
METAR-TAF:

METAR-TAF

Aeroports :

Bagdad, Iraq

latitud: 33-15-45N, longitud: 44-14-04E, altitud: 35 m

Observació

L'informe es va fer fa 55 minuts, a les 00:00 UTC
Vent 6 kt del Oest
Temperatura 12°C
Humitat 50%
Pressió 1014 hPa
Visibilitat: 1200 m
Cel ennuvolat a una alçada de 3000 ft
Pols estès

METAR: ORBI 200000Z 27006KT 1200 R33R/P2000N DU BKN030 12/02 Q1014 NOSIG

Hora: 03:55 (00:55 UTC)

Pronòstic

L'informe es va fer fa 2 hores i 55 minuts, a les 22:00 UTC
Pronòstic vàlid del 20 a les 00 UTC al 20 a les 24 UTC
Vent 7 kt del Oest/Nord-Oest
Visibilitat: 1500 m
Cel ennuvolat a una alçada de 3000 ft
Pols estès
Evolucionant progressivament
l' 20 a les 03 UTC al 20 a les 05 UTC
Visibilitat: 3000 m
Evolucionant progressivament
l' 20 a les 09 UTC al 20 a les 11 UTC
Visibilitat: 5000 m
Escasses núvols a una alçada de 3000 ft

TAF: ORBI 192200Z 2000/2024 30007KT 1500 DU BKN030 BECMG 2003/2005 3000 BECMG 2009/2011 5000 FEW030 NSW

Observacions i pronòstics meteorològics de més de 4000 aeroports (METAR i TAF).

Les estacions disponibles són els punts grocs i vermells al mapa.

Posi el ratolí al punt desitjat per veure el nom de l'estació.

Feu clic per veure les observacions i els pronòstics meteorològics.

Per canviar el mapa: feu clic els botons verds amb una creu de color negre per apropar; al botó verd amb un guió per allunyar la imatge; o en les fletxes verdes per a mapes adjacents.


METAR-TAF: